Time;durP1;ratioP1;P1;durP2;ratioP2;P2;SDS_P1;SDS_P2;PMS_P1;PMS_P2;Temp;Humidity;BMP_temperature;BMP_pressure;BME280_temperature;BME280_humidity;BME280_pressure;Samples;Min_cycle;Max_cycle;Signal;HPM_P1;HPM_P2
2022/03/25 00:00:44;;;;;;;58.58;42.92;;;;;;;18.76;39.63;102953.75;5033250;28;20017;-77
2022/03/25 00:03:10;;;;;;;45.22;33.95;;;;;;;18.70;39.53;102948.66;5033125;28;20091;-77
2022/03/25 00:05:36;;;;;;;49.60;37.92;;;;;;;18.68;39.56;102951.75;5033099;28;20468;-77
2022/03/25 00:08:02;;;;;;;40.10;31.40;;;;;;;18.67;39.45;102940.97;5032958;28;20025;-76
2022/03/25 00:10:27;;;;;;;41.78;32.42;;;;;;;18.56;39.19;102949.50;5033068;28;20083;-78
2022/03/25 00:12:53;;;;;;;51.03;34.47;;;;;;;18.48;39.22;102950.25;5032989;28;20108;-77
2022/03/25 00:15:19;;;;;;;47.10;34.78;;;;;;;18.41;39.14;102954.56;5033018;28;20040;-77
2022/03/25 00:17:45;;;;;;;51.15;39.05;;;;;;;18.35;39.16;102956.63;5032978;28;20029;-77
2022/03/25 00:20:11;;;;;;;46.33;35.35;;;;;;;18.33;39.10;102950.59;5032973;28;20030;-77
2022/03/25 00:22:36;;;;;;;46.03;34.83;;;;;;;18.24;39.29;102956.06;5032852;28;20025;-78
2022/03/25 00:25:05;;;;;;;47.67;37.92;;;;;;;18.20;38.94;102955.03;5032803;28;20053;-76
2022/03/25 00:27:31;;;;;;;34.65;26.15;;;;;;;18.20;39.10;102957.81;5032687;28;20026;-77
2022/03/25 00:29:57;;;;;;;44.75;31.33;;;;;;;18.12;39.05;102964.06;5014747;28;20475;-78
2022/03/25 00:32:23;;;;;;;40.47;31.13;;;;;;;18.10;38.96;102960.81;5031973;28;20130;-77
2022/03/25 00:34:49;;;;;;;45.53;36.20;;;;;;;18.08;38.97;102965.84;5014734;28;20034;-77
2022/03/25 00:37:14;;;;;;;49.30;37.65;;;;;;;18.08;38.79;102965.03;5032632;28;20361;-77
2022/03/25 00:39:40;;;;;;;61.72;37.28;;;;;;;17.92;39.14;102964.53;5032697;28;20055;-77
2022/03/25 00:42:06;;;;;;;53.72;42.13;;;;;;;17.93;39.32;102966.16;5032560;28;20037;-77
2022/03/25 00:44:32;;;;;;;54.38;41.38;;;;;;;17.95;39.27;102961.13;5032514;28;20033;-77
2022/03/25 00:46:58;;;;;;;58.17;42.15;;;;;;;17.97;39.28;102961.63;5032612;28;20036;-77
2022/03/25 00:49:24;;;;;;;51.28;40.35;;;;;;;18.00;39.37;102964.63;5032353;28;20152;-77
2022/03/25 00:51:51;;;;;;;53.40;40.53;;;;;;;17.96;39.34;102957.25;5032488;28;20100;-77
2022/03/25 00:54:17;;;;;;;54.80;42.38;;;;;;;17.88;39.61;102969.03;5032341;28;20021;-77
2022/03/25 00:56:42;;;;;;;50.85;39.55;;;;;;;17.89;39.52;102971.47;5032495;28;20497;-77
2022/03/25 00:59:08;;;;;;;48.05;39.53;;;;;;;17.88;39.45;102969.03;5032400;28;20037;-76
2022/03/25 01:01:33;;;;;;;52.97;41.65;;;;;;;17.87;39.51;102965.44;5032423;28;20037;-76
2022/03/25 01:03:59;;;;;;;44.05;36.17;;;;;;;17.87;39.27;102970.16;5032446;28;20104;-76
2022/03/25 01:06:24;;;;;;;52.50;38.97;;;;;;;17.82;39.60;102965.53;5032268;28;20029;-77
2022/03/25 01:08:51;;;;;;;48.00;37.55;;;;;;;17.73;39.57;102968.22;5032176;28;20064;-76
2022/03/25 01:11:16;;;;;;;49.67;40.15;;;;;;;17.72;39.33;102968.53;5035791;28;20472;-76
2022/03/25 01:13:42;;;;;;;42.70;30.90;;;;;;;17.67;39.54;102963.88;5036596;28;20116;-77
2022/03/25 01:16:08;;;;;;;45.97;34.80;;;;;;;17.60;39.46;102971.75;5036294;28;20041;-76
2022/03/25 01:18:34;;;;;;;48.20;37.95;;;;;;;17.57;39.34;102968.81;5036251;28;20124;-76
2022/03/25 01:21:00;;;;;;;58.10;41.45;;;;;;;17.60;39.34;102973.72;5036198;28;20034;-78
2022/03/25 01:23:27;;;;;;;56.80;42.60;;;;;;;17.60;39.35;102969.00;5036289;28;20078;-77
2022/03/25 01:25:53;;;;;;;49.85;41.53;;;;;;;17.62;39.54;102977.00;5036199;28;20474;-76
2022/03/25 01:28:19;;;;;;;56.13;39.90;;;;;;;17.57;39.41;102980.69;5036023;28;20121;-77
2022/03/25 01:30:46;;;;;;;57.55;45.08;;;;;;;17.47;39.48;102973.41;5036068;28;20056;-77
2022/03/25 01:33:13;;;;;;;54.63;38.80;;;;;;;17.44;39.61;102971.25;5035756;28;20110;-77
2022/03/25 01:35:41;;;;;;;56.35;43.20;;;;;;;17.43;39.69;102971.56;5035960;28;20108;-78
2022/03/25 01:38:06;;;;;;;55.72;42.22;;;;;;;17.44;39.54;102970.44;5036041;28;20116;-77
2022/03/25 01:40:33;;;;;;;57.53;45.22;;;;;;;17.47;39.45;102972.59;5035881;28;20049;-77
2022/03/25 01:42:59;;;;;;;52.17;40.67;;;;;;;17.45;39.39;102972.06;5035776;28;20042;-77
2022/03/25 01:45:34;;;;;;;55.33;41.78;;;;;;;17.41;39.70;102976.59;5034511;28;20029;-77
2022/03/25 01:48:03;;;;;;;48.88;39.50;;;;;;;17.45;39.62;102975.66;5035508;28;20087;-76
2022/03/25 01:50:28;;;;;;;51.17;39.47;;;;;;;17.45;39.62;102972.88;5035633;28;20033;-77
2022/03/25 01:52:54;;;;;;;45.38;37.47;;;;;;;17.40;39.85;102970.22;5035637;28;20490;-77
2022/03/25 01:55:26;;;;;;;51.85;40.92;;;;;;;17.37;39.86;102967.25;5035573;28;20036;-76
2022/03/25 01:57:57;;;;;;;60.05;44.72;;;;;;;17.33;39.82;102969.81;5035567;28;20365;-78
2022/03/25 02:00:23;;;;;;;51.38;39.25;;;;;;;17.37;39.77;102973.59;5035772;28;20023;-76
2022/03/25 02:02:49;;;;;;;54.75;40.67;;;;;;;17.38;39.74;102968.88;5035444;28;20026;-77
2022/03/25 02:05:16;;;;;;;65.00;43.30;;;;;;;17.38;39.81;102971.63;5035417;28;20029;-77
2022/03/25 02:07:41;;;;;;;58.38;43.35;;;;;;;17.36;39.66;102962.84;5035297;28;20096;-77
2022/03/25 02:10:07;;;;;;;62.55;43.85;;;;;;;17.34;39.64;102968.69;5035352;28;20030;-76
2022/03/25 02:12:35;;;;;;;59.22;45.47;;;;;;;17.36;39.85;102965.63;5035260;28;20026;-77
2022/03/25 02:15:02;;;;;;;58.80;43.03;;;;;;;17.38;39.70;102963.34;5035253;28;20107;-77
2022/03/25 02:17:29;;;;;;;67.82;43.17;;;;;;;17.33;39.80;102957.94;5035305;28;20222;-77
2022/03/25 02:19:55;;;;;;;58.13;41.33;;;;;;;17.23;39.88;102964.50;5035098;28;20413;-77
2022/03/25 02:22:22;;;;;;;61.28;46.40;;;;;;;17.25;40.08;102965.00;5033702;28;20030;-76
2022/03/25 02:24:49;;;;;;;57.08;42.58;;;;;;;17.28;39.85;102969.09;5034988;28;20017;-77
2022/03/25 02:27:16;;;;;;;51.35;40.38;;;;;;;17.20;40.21;102965.06;5034923;28;20024;-77
2022/03/25 02:29:43;;;;;;;60.78;44.65;;;;;;;17.24;40.30;102962.53;5034885;28;20025;-76
2022/03/25 02:32:10;;;;;;;55.13;41.35;;;;;;;17.31;39.92;102958.25;5016876;28;20056;-76
2022/03/25 02:34:37;;;;;;;54.72;43.85;;;;;;;17.32;39.91;102964.59;5034864;28;20032;-77
2022/03/25 02:37:04;;;;;;;53.00;40.40;;;;;;;17.34;39.98;102965.91;5034842;28;20022;-76
2022/03/25 02:39:30;;;;;;;52.45;39.25;;;;;;;17.35;40.16;102961.22;5034729;28;20088;-77
2022/03/25 02:41:56;;;;;;;56.78;44.00;;;;;;;17.38;40.05;102960.59;5034685;28;20383;-77
2022/03/25 02:44:22;;;;;;;55.17;42.47;;;;;;;17.40;40.11;102963.88;5034693;28;20116;-77
2022/03/25 02:46:47;;;;;;;53.90;40.97;;;;;;;17.46;39.92;102960.72;5034661;28;20083;-77
2022/03/25 02:49:14;;;;;;;51.53;37.53;;;;;;;17.47;39.82;102964.31;5034521;28;20029;-77
2022/03/25 02:51:40;;;;;;;59.50;39.97;;;;;;;17.49;39.92;102962.03;5034545;28;20391;-77
2022/03/25 02:54:08;;;;;;;56.25;38.63;;;;;;;17.52;40.27;102963.38;5034413;28;20033;-77
2022/03/25 02:56:34;;;;;;;48.05;39.03;;;;;;;17.55;40.12;102962.78;5034348;28;20021;-80
2022/03/25 02:58:59;;;;;;;52.50;39.60;;;;;;;17.58;40.00;102964.91;5034475;28;20033;-76
2022/03/25 03:01:25;;;;;;;50.17;38.80;;;;;;;17.60;40.07;102955.19;5034425;28;20029;-77
2022/03/25 03:03:51;;;;;;;55.47;42.72;;;;;;;17.62;40.11;102961.25;5034248;28;20022;-77
2022/03/25 03:06:17;;;;;;;56.45;46.22;;;;;;;17.69;40.12;102963.59;5034303;28;20021;-77
2022/03/25 03:08:43;;;;;;;60.22;44.00;;;;;;;17.73;40.04;102959.09;5034197;28;20028;-77
2022/03/25 03:11:13;;;;;;;54.75;42.30;;;;;;;17.76;40.14;102955.75;5033759;28;20030;-77
2022/03/25 03:13:38;;;;;;;;;;;;;;;17.74;40.23;102960.75;5034634;28;20032;-77
2022/03/25 03:16:04;;;;;;;53.35;40.17;;;;;;;17.81;40.16;102965.88;5034103;28;19913;-77
2022/03/25 03:18:30;;;;;;;48.47;38.63;;;;;;;17.82;40.28;102960.00;5033989;28;20083;-77
2022/03/25 03:20:56;;;;;;;54.53;41.97;;;;;;;17.85;40.21;102959.41;5033869;28;20025;-77
2022/03/25 03:23:22;;;;;;;53.63;42.13;;;;;;;17.91;40.31;102960.94;5033911;28;20025;-77
2022/03/25 03:25:47;;;;;;;56.90;42.55;;;;;;;17.94;40.28;102962.28;5033889;28;20034;-77
2022/03/25 03:28:13;;;;;;;61.45;43.92;;;;;;;17.96;40.30;102958.06;5015954;28;20507;-77
2022/03/25 03:30:39;;;;;;;57.10;43.88;;;;;;;17.99;40.34;102956.63;5033895;28;20069;-77
2022/03/25 03:33:05;;;;;;;55.10;43.60;;;;;;;18.02;40.28;102965.13;5033102;28;20077;-77
2022/03/25 03:35:34;;;;;;;55.95;44.10;;;;;;;18.03;40.41;102964.00;5033813;28;20424;-77
2022/03/25 03:38:00;;;;;;;50.83;40.85;;;;;;;18.06;40.36;102972.78;5033664;28;20030;-77
2022/03/25 03:40:26;;;;;;;52.17;43.33;;;;;;;18.08;40.63;102973.31;5033669;28;20028;-77
2022/03/25 03:42:52;;;;;;;54.92;43.58;;;;;;;18.09;40.46;102983.25;5033477;28;20029;-77
2022/03/25 03:45:18;;;;;;;54.75;43.92;;;;;;;18.10;40.61;102980.16;5015263;28;20025;-77
2022/03/25 03:47:44;;;;;;;63.03;45.45;;;;;;;18.12;40.69;102979.84;5010129;28;20034;-77
2022/03/25 03:50:14;;;;;;;58.75;42.85;;;;;;;18.08;40.87;102974.13;5013580;28;20473;-77
2022/03/25 03:52:40;;;;;;;62.80;44.35;;;;;;;18.15;40.92;102979.25;5013668;28;20069;-77
2022/03/25 03:55:08;;;;;;;53.95;43.20;;;;;;;18.16;40.80;102981.69;5013430;28;20361;-81
2022/03/25 03:57:38;;;;;;;57.38;44.45;;;;;;;18.15;40.82;102980.06;5013584;28;20046;-77
2022/03/25 04:00:09;;;;;;;;;;;;;;;18.08;40.98;102976.09;5014032;28;20486;-77
2022/03/25 04:02:35;;;;;;;51.13;40.92;;;;;;;18.20;40.64;102982.69;5012300;28;19914;-77
2022/03/25 04:05:00;;;;;;;54.75;42.90;;;;;;;18.23;40.69;102979.34;5013460;28;20410;-77
2022/03/25 04:07:26;;;;;;;54.88;42.75;;;;;;;18.28;40.53;102987.50;5012572;28;20072;-77
2022/03/25 04:09:51;;;;;;;56.85;44.00;;;;;;;18.29;40.60;102983.63;5013348;28;20021;-77
2022/03/25 04:12:17;;;;;;;53.42;43.20;;;;;;;18.33;40.73;102978.28;5013249;28;20029;-77
2022/03/25 04:14:44;;;;;;;54.97;41.85;;;;;;;18.34;40.76;102987.41;5013313;28;20036;-76
2022/03/25 04:17:11;;;;;;;54.53;41.78;;;;;;;18.36;40.88;102991.47;5013233;28;20388;-77
2022/03/25 04:19:36;;;;;;;50.33;39.10;;;;;;;18.38;40.69;102989.25;5013297;28;20391;-77
2022/03/25 04:22:02;;;;;;;52.80;36.63;;;;;;;18.34;40.93;102988.22;5013145;28;20104;-77
2022/03/25 04:24:28;;;;;;;44.25;35.42;;;;;;;18.35;40.98;102983.50;5013231;28;20473;-78
2022/03/25 04:26:53;;;;;;;45.92;36.05;;;;;;;18.33;40.70;102985.75;5013050;28;20026;-77
2022/03/25 04:29:19;;;;;;;50.38;36.53;;;;;;;18.32;41.01;102984.13;5012971;28;20073;-77
2022/03/25 04:31:45;;;;;;;47.53;38.45;;;;;;;18.33;41.01;102992.13;5012920;28;20061;-77
2022/03/25 04:34:11;;;;;;;47.70;36.92;;;;;;;18.34;40.89;102995.69;5012758;28;20038;-77
2022/03/25 04:36:37;;;;;;;47.78;38.53;;;;;;;18.35;40.88;102994.56;5012967;28;20113;-78
2022/03/25 04:39:04;;;;;;;46.28;36.45;;;;;;;18.43;40.79;103002.13;5012821;28;20488;-77
2022/03/25 04:41:29;;;;;;;45.40;36.78;;;;;;;18.40;41.06;103005.53;5012827;28;20033;-77
2022/03/25 04:43:55;;;;;;;50.78;39.30;;;;;;;18.42;40.95;103009.63;5012578;28;20404;-77
2022/03/25 04:46:21;;;;;;;44.55;36.38;;;;;;;18.40;41.09;103011.06;5012636;28;20038;-77
2022/03/25 04:48:46;;;;;;;43.42;37.17;;;;;;;18.42;41.08;103011.56;5012753;28;20092;-77
2022/03/25 04:51:12;;;;;;;47.08;38.45;;;;;;;18.43;40.99;103007.66;5012794;28;20036;-77
2022/03/25 04:53:38;;;;;;;55.75;39.30;;;;;;;18.42;41.09;103015.16;5012748;28;20081;-78
2022/03/25 04:56:04;;;;;;;52.20;37.75;;;;;;;18.41;41.36;103009.94;5012673;28;20487;-77
2022/03/25 04:58:29;;;;;;;48.83;38.28;;;;;;;18.40;40.97;103013.84;5012778;28;20052;-76
2022/03/25 05:00:55;;;;;;;46.60;37.85;;;;;;;18.40;41.13;103019.38;5011375;28;20040;-77
2022/03/25 05:03:21;;;;;;;49.10;38.13;;;;;;;18.41;41.21;103021.00;5012724;28;20029;-76
2022/03/25 05:05:47;;;;;;;52.85;39.17;;;;;;;18.42;41.13;103014.34;5012577;28;20037;-77
2022/03/25 05:08:14;;;;;;;51.15;37.78;;;;;;;18.38;41.18;103016.91;5011301;28;20501;-77
2022/03/25 05:10:39;;;;;;;60.55;40.33;;;;;;;18.40;41.27;103027.69;5011305;28;20033;-77
2022/03/25 05:13:05;;;;;;;57.67;43.50;;;;;;;18.21;41.75;103028.66;5012628;28;20026;-77
2022/03/25 05:15:31;;;;;;;58.70;43.97;;;;;;;18.18;41.82;103023.72;5012496;28;20030;-77
2022/03/25 05:17:57;;;;;;;55.55;44.20;;;;;;;18.17;42.13;103024.03;5011293;28;20079;-77
2022/03/25 05:20:24;;;;;;;56.35;42.42;;;;;;;18.19;42.01;103028.09;5012432;28;20075;-77
2022/03/25 05:22:50;;;;;;;58.83;43.88;;;;;;;18.20;42.19;103031.69;5012564;28;20527;-78
2022/03/25 05:25:17;;;;;;;59.22;45.08;;;;;;;18.21;42.04;103028.66;5012416;28;20054;-76
2022/03/25 05:27:49;;;;;;;67.63;46.55;;;;;;;18.16;42.32;103020.44;5012387;28;20033;-77
2022/03/25 05:30:18;;;;;;;59.22;43.95;;;;;;;18.17;42.29;103021.25;5012412;28;20029;-77
2022/03/25 05:32:43;;;;;;;49.67;37.17;;;;;;;18.21;42.22;103034.19;5012067;28;20050;-77
2022/03/25 05:35:10;;;;;;;48.10;38.63;;;;;;;18.15;42.23;103024.34;5012428;28;20029;-77
2022/03/25 05:37:37;;;;;;;46.72;37.13;;;;;;;18.02;42.66;103027.94;5012444;28;20038;-77
2022/03/25 05:40:03;;;;;;;51.10;37.42;;;;;;;18.21;42.06;103031.41;5012345;28;20477;-77
2022/03/25 05:42:29;;;;;;;52.00;39.30;;;;;;;18.32;41.55;103023.69;5012225;28;20033;-77
2022/03/25 05:44:54;;;;;;;65.18;40.42;;;;;;;18.29;41.57;103024.31;5012242;28;20510;-76
2022/03/25 05:47:20;;;;;;;53.28;36.92;;;;;;;18.32;41.71;103007.09;5011838;28;20385;-76
2022/03/25 05:49:46;;;;;;;54.55;40.45;;;;;;;18.18;42.02;103023.72;5010973;28;20029;-76
2022/03/25 05:52:12;;;;;;;52.33;41.40;;;;;;;18.20;41.73;103026.16;5010829;28;20392;-76
2022/03/25 05:54:37;;;;;;;51.03;39.05;;;;;;;18.17;41.82;103021.25;5010743;28;20026;-76
2022/03/25 05:57:04;;;;;;;54.42;38.15;;;;;;;18.17;41.74;103022.06;5014928;28;20022;-76
2022/03/25 05:59:30;;;;;;;45.17;37.28;;;;;;;18.20;41.67;103026.16;5014416;28;20087;-75
2022/03/25 06:01:55;;;;;;;61.65;43.72;;;;;;;18.12;42.13;103024.94;5015541;28;20030;-76
2022/03/25 06:04:21;;;;;;;59.25;45.08;;;;;;;18.14;42.07;103027.41;5015793;28;20071;-76
2022/03/25 06:06:47;;;;;;;62.63;44.30;;;;;;;18.17;41.87;103024.84;5015484;28;20097;-76
2022/03/25 06:09:12;;;;;;;56.85;40.30;;;;;;;18.14;41.89;103027.41;5015574;28;20116;-75
2022/03/25 06:11:38;;;;;;;59.97;42.83;;;;;;;18.19;42.30;103024.53;5015634;28;20095;-77
2022/03/25 06:14:03;;;;;;;60.28;43.95;;;;;;;18.20;42.02;103026.16;5015358;28;20076;-77
2022/03/25 06:16:29;;;;;;;62.60;42.90;;;;;;;18.14;42.31;103033.78;5015533;28;20022;-77
2022/03/25 06:18:55;;;;;;;62.92;43.17;;;;;;;18.10;42.08;103032.75;5014437;28;20535;-76
2022/03/25 06:21:21;;;;;;;59.28;43.90;;;;;;;18.17;42.22;103033.13;5014212;28;20602;-77
2022/03/25 06:23:47;;;;;;;61.83;42.05;;;;;;;18.05;42.64;103032.84;5015219;28;20025;-77
2022/03/25 06:26:13;;;;;;;57.85;42.80;;;;;;;18.08;42.27;103029.47;5013651;28;20105;-77
2022/03/25 06:28:38;;;;;;;63.15;44.45;;;;;;;18.09;42.36;103036.63;5015205;28;20080;-77
2022/03/25 06:31:04;;;;;;;59.03;44.17;;;;;;;18.01;42.59;103035.41;5014358;28;20057;-77
2022/03/25 06:33:30;;;;;;;62.13;45.47;;;;;;;18.07;42.22;103027.84;5014731;28;20037;-77
2022/03/25 06:35:56;;;;;;;59.65;43.08;;;;;;;18.00;42.67;103028.25;5013889;28;20022;-78
2022/03/25 06:38:22;;;;;;;62.10;44.50;;;;;;;18.00;42.71;103031.00;5013498;28;20503;-78
2022/03/25 06:40:48;;;;;;;63.78;45.90;;;;;;;18.03;42.42;103033.16;5014821;28;20022;-77
2022/03/25 06:43:13;;;;;;;63.22;44.97;;;;;;;18.12;42.34;103036.00;5014570;28;20032;-81
2022/03/25 06:45:39;;;;;;;62.78;45.00;;;;;;;18.07;42.71;103027.03;5015986;28;20026;-82
2022/03/25 06:48:05;;;;;;;59.92;43.70;;;;;;;18.12;42.44;103036.00;5016890;28;20061;-90
2022/03/25 06:50:31;;;;;;;65.10;43.78;;;;;;;17.98;42.54;103035.19;5033858;28;20025;-77
2022/03/25 06:53:01;;;;;;;55.17;43.50;;;;;;;18.05;42.51;103038.38;5016916;28;20022;-77
2022/03/25 06:55:28;;;;;;;55.33;41.13;;;;;;;17.91;42.51;103032.88;5034984;28;20022;-84
2022/03/25 06:57:53;;;;;;;54.70;41.78;;;;;;;17.92;42.72;103041.97;5035056;28;20112;-78
2022/03/25 07:00:21;;;;;;;57.33;40.00;;;;;;;17.93;42.36;103035.31;5034562;28;20108;-78
2022/03/25 07:02:47;;;;;;;55.47;38.15;;;;;;;17.88;42.53;103041.75;5034495;28;20029;-78
2022/03/25 07:05:13;;;;;;;59.28;40.35;;;;;;;17.83;42.60;103049.31;5034131;28;20053;-79
2022/03/25 07:07:40;;;;;;;53.03;39.28;;;;;;;17.78;42.74;103055.78;5033654;28;20083;-81
2022/03/25 07:10:11;;;;;;;48.75;36.90;;;;;;;17.82;42.45;103053.22;5016576;28;20388;-77
2022/03/25 07:12:41;;;;;;;50.92;38.78;;;;;;;17.80;42.31;103058.25;5034615;28;20083;-79
2022/03/25 07:15:07;;;;;;;53.58;38.63;;;;;;;17.88;42.40;103063.06;5016489;28;20036;-78
2022/03/25 07:17:34;;;;;;;56.65;40.08;;;;;;;17.82;42.50;103056.00;5034203;28;20148;-78
2022/03/25 07:20:01;;;;;;;66.32;43.45;;;;;;;17.85;42.82;103060.91;5016375;28;20029;-78
2022/03/25 07:22:27;;;;;;;59.17;40.38;;;;;;;18.02;42.43;103066.66;5016428;28;20026;-77
2022/03/25 07:24:52;;;;;;;54.40;40.17;;;;;;;18.15;42.49;103070.56;5016378;28;20037;-76
2022/03/25 07:27:18;;;;;;;55.70;41.30;;;;;;;18.16;42.75;103073.00;5015712;28;20071;-78
2022/03/25 07:29:43;;;;;;;55.13;39.72;;;;;;;18.21;42.79;103072.91;5015112;28;20033;-77
2022/03/25 07:32:09;;;;;;;59.70;39.50;;;;;;;18.26;42.80;103075.56;5033603;28;20543;-78
2022/03/25 07:34:37;;;;;;;61.45;42.20;;;;;;;18.42;42.70;103076.03;5033740;28;20041;-77
2022/03/25 07:37:04;;;;;;;60.17;40.35;;;;;;;18.45;43.04;103075.44;5033928;28;20030;-86
2022/03/25 07:39:30;;;;;;;62.50;43.30;;;;;;;18.61;42.85;103075.94;5034143;28;20052;-77
2022/03/25 07:41:57;;;;;;;66.68;46.17;;;;;;;18.75;42.84;103076.75;5033503;28;20494;-76
2022/03/25 07:44:23;;;;;;;53.05;40.25;;;;;;;18.75;43.11;103082.28;5033607;28;20392;-77
2022/03/25 07:46:49;;;;;;;58.78;40.72;;;;;;;18.87;43.26;103086.44;5033669;28;20036;-77
2022/03/25 07:49:15;;;;;;;59.83;39.72;;;;;;;19.00;43.26;103085.56;5033688;28;20038;-76
2022/03/25 07:51:41;;;;;;;62.65;41.10;;;;;;;19.09;43.97;103086.47;5015612;28;20049;-76
2022/03/25 07:54:07;;;;;;;57.13;38.90;;;;;;;19.24;43.86;103083.31;5033422;28;20546;-77
2022/03/25 07:56:33;;;;;;;65.40;41.20;;;;;;;19.35;43.89;103083.88;5033366;28;20056;-76
2022/03/25 07:59:03;;;;;;;57.42;38.83;;;;;;;19.33;44.37;103088.91;5033117;28;20033;-76
2022/03/25 08:01:29;;;;;;;65.55;39.33;;;;;;;19.50;43.87;103091.81;5015536;28;20025;-79
2022/03/25 08:03:55;;;;;;;55.42;38.85;;;;;;;19.53;44.17;103095.91;5016878;28;20057;-77
2022/03/25 08:06:22;;;;;;;65.22;40.22;;;;;;;19.39;44.70;103087.66;5017583;28;20022;-76
2022/03/25 08:08:48;;;;;;;58.58;40.08;;;;;;;19.49;44.57;103092.09;5037293;28;20120;-96
2022/03/25 08:11:14;;;;;;;52.83;36.15;;;;;;;19.49;44.86;103100.41;5035700;28;20112;-82
2022/03/25 08:13:40;;;;;;;57.88;40.83;;;;;;;19.51;44.81;103092.63;5029640;28;20021;-84
2022/03/25 08:16:06;;;;;;;53.60;36.88;;;;;;;19.65;44.44;103098.94;5014558;28;20036;-92
2022/03/25 08:18:32;;;;;;;52.97;36.40;;;;;;;19.63;44.59;103099.25;5034358;28;20028;-72
2022/03/25 08:20:58;;;;;;;52.65;36.83;;;;;;;19.66;44.63;103106.94;5016008;28;20029;-72
2022/03/25 08:28:55;;;;;;;56.55;36.28;;;;;;;19.34;45.01;103108.00;5033572;28;20483;-91
2022/03/25 08:31:22;;;;;;;60.30;37.95;;;;;;;19.52;44.79;103108.94;5033884;28;20120;-91
2022/03/25 08:33:51;;;;;;;52.25;37.03;;;;;;;19.59;44.54;103105.75;5034015;28;20022;-89
2022/03/25 08:36:18;;;;;;;59.70;38.28;;;;;;;19.64;44.47;103111.16;5033293;28;20018;-91
2022/03/25 08:38:45;;;;;;;57.75;38.60;;;;;;;19.48;44.82;103109.88;5032149;28;20177;-72
2022/03/25 08:41:12;;;;;;;51.30;37.28;;;;;;;19.52;44.79;103110.91;5033182;28;20110;-72
2022/03/25 08:43:39;;;;;;;57.95;37.33;;;;;;;19.59;44.61;103112.13;5031790;28;20456;-92
2022/03/25 08:46:08;;;;;;;54.80;37.55;;;;;;;19.51;44.85;103114.81;5030183;28;20038;-72
2022/03/25 08:48:35;;;;;;;56.58;36.88;;;;;;;19.55;44.75;103110.25;5030419;28;20064;-72
2022/03/25 08:51:01;;;;;;;56.75;39.30;;;;;;;19.63;44.96;103113.09;5032410;28;20425;-72
2022/03/25 08:53:28;;;;;;;61.63;40.13;;;;;;;19.68;44.92;103114.94;5032311;28;20056;-71
2022/03/25 08:55:54;;;;;;;59.92;39.85;;;;;;;19.64;45.25;103119.47;5032503;28;20096;-70
2022/03/25 08:58:20;;;;;;;58.55;39.75;;;;;;;19.52;45.43;103122.00;5014261;28;20053;-68
2022/03/25 09:00:45;;;;;;;55.92;37.65;;;;;;;19.65;45.08;103113.63;5032313;28;20491;-68
2022/03/25 09:03:12;;;;;;;59.42;39.97;;;;;;;19.63;45.14;103124.19;5032281;28;20068;-77
2022/03/25 09:05:39;;;;;;;63.33;39.60;;;;;;;19.53;45.29;103118.06;5032116;28;20424;-69
2022/03/25 09:08:06;;;;;;;59.65;37.80;;;;;;;19.61;45.07;103114.56;5032226;28;20503;-69
2022/03/25 09:10:33;;;;;;;57.58;39.38;;;;;;;19.74;44.71;103127.53;5014685;28;20423;-69
2022/03/25 09:12:59;;;;;;;56.03;39.65;;;;;;;19.84;44.57;103123.66;5031428;28;20543;-69
2022/03/25 09:15:25;;;;;;;53.75;39.15;;;;;;;19.82;44.54;103124.00;5031015;28;20083;-88
2022/03/25 09:17:51;;;;;;;58.63;39.15;;;;;;;19.90;44.67;103122.41;5031831;28;20104;-70
2022/03/25 09:20:19;;;;;;;56.05;40.25;;;;;;;19.91;44.56;103124.03;5032664;28;20025;-69
2022/03/25 09:22:44;;;;;;;56.67;39.88;;;;;;;19.78;44.95;103125.75;5032151;28;20036;-69
2022/03/25 09:25:11;;;;;;;59.85;43.00;;;;;;;19.80;45.03;103131.81;5032276;28;20476;-69
2022/03/25 09:27:41;;;;;;;56.92;41.05;;;;;;;19.65;45.34;103137.78;5031665;28;20025;-69
2022/03/25 09:30:09;;;;;;;69.97;43.83;;;;;;;19.87;44.86;103126.59;5032789;28;20026;-69
2022/03/25 09:32:35;;;;;;;64.82;44.20;;;;;;;19.89;44.83;103138.22;5015634;28;20050;-70
2022/03/25 09:35:10;;;;;;;54.97;42.63;;;;;;;19.84;45.17;103141.13;5014091;28;20542;-70
2022/03/25 09:37:36;;;;;;;62.88;41.80;;;;;;;19.72;45.27;103138.13;5013469;28;20054;-69
2022/03/25 09:40:08;;;;;;;53.33;38.15;;;;;;;19.61;45.81;103143.13;5011888;28;20054;-69
2022/03/25 09:42:35;;;;;;;59.53;42.28;;;;;;;19.70;45.45;103137.63;5012920;28;20022;-69
2022/03/25 09:45:03;;;;;;;62.97;38.95;;;;;;;19.84;45.22;103141.13;5013757;28;20036;-70
2022/03/25 09:47:32;;;;;;;57.25;40.25;;;;;;;20.07;44.91;103152.19;5013706;28;20030;-74
2022/03/25 09:50:03;;;;;;;63.60;42.08;;;;;;;20.14;44.97;103149.75;5015895;28;20029;-70
2022/03/25 09:52:31;;;;;;;52.63;40.30;;;;;;;20.18;45.01;103156.31;5016021;28;20481;-69
2022/03/25 09:54:58;;;;;;;55.55;40.55;;;;;;;19.96;45.60;103159.97;5015681;28;20026;-69
2022/03/25 09:57:26;;;;;;;50.38;38.95;;;;;;;20.16;45.01;103153.84;5015453;28;20041;-91
2022/03/25 09:59:56;;;;;;;48.83;36.83;;;;;;;20.20;44.88;103152.09;5017274;28;20432;-86
2022/03/25 10:02:24;;;;;;;53.05;39.70;;;;;;;20.48;44.04;103144.38;5015539;28;20029;-69
2022/03/25 10:04:51;;;;;;;56.30;39.75;;;;;;;20.50;44.11;103146.81;5015449;28;20037;-87
2022/03/25 10:07:44;;;;;;;55.42;40.00;;;;;;;20.60;44.04;103145.69;5016255;28;20026;-70
2022/03/25 10:10:21;;;;;;;53.28;37.33;;;;;;;20.53;43.47;103148.13;5015476;28;20033;-70
2022/03/25 10:13:00;;;;;;;49.97;36.78;;;;;;;20.38;44.37;103169.59;5013280;28;20026;-89
2022/03/25 10:15:28;;;;;;;49.53;37.47;;;;;;;20.51;43.84;103165.13;5013688;28;20404;-70
2022/03/25 10:18:03;;;;;;;54.33;36.03;;;;;;;20.37;44.14;103167.97;5013491;28;20754;-69
2022/03/25 10:20:36;;;;;;;52.67;36.60;;;;;;;20.27;44.15;103171.06;5015071;28;20037;-69
2022/03/25 10:23:05;;;;;;;49.03;36.47;;;;;;;20.39;43.93;103171.25;5014519;28;20428;-69
2022/03/25 10:25:42;;;;;;;47.95;37.22;;;;;;;20.48;43.66;103154.66;5013063;28;20120;-71
2022/03/25 10:28:20;;;;;;;48.05;36.58;;;;;;;20.77;43.09;103156.84;5012075;28;20582;-68
2022/03/25 10:30:51;;;;;;;58.05;40.65;;;;;;;20.96;42.87;103153.75;5014325;28;20030;-72
2022/03/25 10:33:44;;;;;;;65.65;39.42;;;;;;;20.89;42.87;103161.75;5033788;28;20120;-68
2022/03/25 10:36:12;;;;;;;45.15;33.05;;;;;;;20.92;42.72;103158.31;5032091;28;20444;-69
2022/03/25 10:38:58;;;;;;;63.42;37.60;;;;;;;21.02;42.34;103164.41;5034803;28;20126;-69
2022/03/25 10:41:39;;;;;;;50.53;36.13;;;;;;;21.03;42.00;103168.81;5034693;28;20448;-69
2022/03/25 10:44:06;;;;;;;53.92;38.15;;;;;;;21.00;42.35;103163.88;5033044;28;20109;-69
2022/03/25 10:46:40;;;;;;;48.28;36.45;;;;;;;20.92;42.06;103166.66;5033200;28;20029;-70
2022/03/25 10:49:09;;;;;;;47.30;33.58;;;;;;;21.05;42.12;103165.69;5034474;28;20056;-70
2022/03/25 10:51:38;;;;;;;47.70;34.78;;;;;;;21.25;41.96;103167.03;5034797;28;20025;-70
2022/03/25 10:54:12;;;;;;;49.88;35.22;;;;;;;21.16;41.40;103167.03;5016843;28;20025;-69
2022/03/25 10:56:59;;;;;;;47.58;34.65;;;;;;;21.24;41.75;103166.22;5034085;28;20862;-69
2022/03/25 10:59:30;;;;;;;45.90;35.78;;;;;;;21.46;41.59;103162.47;5033152;28;20511;-69
2022/03/25 11:01:59;;;;;;;46.97;34.03;;;;;;;21.48;41.20;103164.91;5034464;28;20029;-69
2022/03/25 11:04:26;;;;;;;47.67;34.33;;;;;;;21.46;41.01;103170.81;5033542;28;20387;-70
2022/03/25 11:06:53;;;;;;;42.33;32.13;;;;;;;21.29;41.44;103166.06;5034472;28;20030;-69
2022/03/25 11:09:20;;;;;;;50.45;34.55;;;;;;;21.49;40.81;103169.31;5034077;28;20113;-69
2022/03/25 11:11:48;;;;;;;45.80;34.25;;;;;;;21.63;40.94;103166.38;5033762;28;20050;-69
2022/03/25 11:14:15;;;;;;;40.28;31.48;;;;;;;21.63;40.60;103171.94;5034163;28;20498;-70